Paris, France
Current Conditions -  °F | °C
As of 1:00 PM on Friday 28 Nov 2014 (Local Time) from LFPB Reporting Station
Clear Clear  
Wind Chill: 57°   Ceiling: Unl
Heat Index: 57°   Visibility: 6mi
Dew Point: 48°   Wind: 8mph
Humidity: 72%   Direction: 90°E
Pressure: 29.56"   Gusts: NA
Location:  48.86°N, 2.35°E
Report Text: LFPB 281200Z AUTO 09007KT 9999 NSC 14/09 Q1001
Loading
Personal Weather Stations






























Interactive Weather Map New forecast layout! Learn more

10-Day Weather Forecast

Advertisements
Track Severe Weather on mobile